createdAt,value
2022-11-15T00:01:10.870Z,79.80
2022-11-15T00:03:37.911Z,79.90
2022-11-15T00:06:05.965Z,81.70
2022-11-15T00:08:34.011Z,83.00
2022-11-15T00:11:03.016Z,84.70
2022-11-15T00:13:31.410Z,86.30
2022-11-15T00:16:00.207Z,87.80
2022-11-15T00:18:27.531Z,90.00
2022-11-15T00:20:54.466Z,91.00
2022-11-15T00:23:21.510Z,91.10
2022-11-15T00:25:48.577Z,91.20
2022-11-15T00:28:17.050Z,91.80
2022-11-15T00:30:43.964Z,92.00
2022-11-15T00:33:11.455Z,92.50
2022-11-15T00:35:38.524Z,92.60
2022-11-15T00:38:05.541Z,92.70
2022-11-15T00:40:35.452Z,93.60
2022-11-15T00:43:02.434Z,93.70
2022-11-15T00:45:29.352Z,94.20
2022-11-15T00:47:56.389Z,94.60
2022-11-15T00:50:23.437Z,95.50
2022-11-15T00:52:50.394Z,95.80
2022-11-15T00:55:19.190Z,96.70
2022-11-15T00:57:47.133Z,97.50
2022-11-15T01:00:14.689Z,98.00
2022-11-15T01:02:41.914Z,99.00
2022-11-15T01:05:09.537Z,99.30
2022-11-15T01:07:36.921Z,99.50
2022-11-15T01:10:04.730Z,99.50
2022-11-15T01:12:33.152Z,99.30
2022-11-15T01:15:00.352Z,98.90
2022-11-15T01:17:27.605Z,98.50
2022-11-15T01:19:54.586Z,98.30
2022-11-15T01:22:21.797Z,98.80
2022-11-15T01:24:50.333Z,98.90
2022-11-15T01:27:17.744Z,98.70
2022-11-15T01:29:44.592Z,98.40
2022-11-15T01:32:11.655Z,98.60
2022-11-15T01:34:38.612Z,98.50
2022-11-15T01:37:05.600Z,99.40
2022-11-15T01:39:32.685Z,99.80
2022-11-15T01:41:59.632Z,99.90
2022-11-15T01:44:41.670Z,99.90
2022-11-15T01:47:30.728Z,99.90
2022-11-15T01:50:09.310Z,99.70
2022-11-15T01:52:37.604Z,99.40
2022-11-15T01:55:15.017Z,99.90
2022-11-15T01:57:44.032Z,99.90
2022-11-15T02:00:11.992Z,99.90
2022-11-15T02:02:40.437Z,99.90
2022-11-15T02:05:07.802Z,99.90
2022-11-15T02:07:37.039Z,99.90
2022-11-15T02:10:13.277Z,99.90
2022-11-15T02:12:41.726Z,99.90
2022-11-15T02:15:11.052Z,99.90
2022-11-15T02:18:16.842Z,99.90
2022-11-15T02:21:33.559Z,99.90
2022-11-15T02:25:01.808Z,99.90
2022-11-15T02:28:07.095Z,99.80
2022-11-15T02:31:23.213Z,98.80
2022-11-15T02:34:16.896Z,99.20
2022-11-15T02:37:19.444Z,99.90
2022-11-15T02:40:29.814Z,99.90
2022-11-15T03:00:00.895Z,97.40
2022-11-15T03:17:36.996Z,96.40
2022-11-15T03:20:07.005Z,96.20
2022-11-15T03:22:41.116Z,96.10
2022-11-15T03:25:12.131Z,95.90
2022-11-15T03:27:47.740Z,95.90
2022-11-15T03:30:15.649Z,96.30
2022-11-15T03:32:50.718Z,96.00
2022-11-15T03:35:23.790Z,96.40
2022-11-15T03:38:15.676Z,96.40
2022-11-15T03:40:46.389Z,96.30
2022-11-15T03:43:36.302Z,96.50
2022-11-15T03:46:26.708Z,96.70
2022-11-15T03:49:02.047Z,96.80
2022-11-15T03:51:30.816Z,97.00
2022-11-15T03:53:57.805Z,97.10
2022-11-15T03:56:24.788Z,97.50
2022-11-15T03:58:51.881Z,97.60
2022-11-15T04:01:18.816Z,97.80
2022-11-15T04:03:45.810Z,97.80
2022-11-15T04:06:12.654Z,97.90
2022-11-15T04:08:39.539Z,98.00
2022-11-15T04:11:06.526Z,98.20
2022-11-15T04:13:33.774Z,98.40
2022-11-15T04:16:00.895Z,98.80
2022-11-15T04:18:27.909Z,98.80
2022-11-15T04:21:13.237Z,98.80
2022-11-15T04:23:58.920Z,98.60
2022-11-15T04:26:26.061Z,98.50
2022-11-15T04:29:11.850Z,98.80
2022-11-15T04:31:38.823Z,99.10
2022-11-15T04:34:05.856Z,99.20
2022-11-15T04:36:51.600Z,99.70
2022-11-15T04:39:18.782Z,99.50
2022-11-15T04:41:45.729Z,99.10
2022-11-15T04:44:12.825Z,98.50
2022-11-15T04:46:39.719Z,98.20
2022-11-15T04:49:06.667Z,98.00
2022-11-15T04:51:33.673Z,97.70
2022-11-15T04:54:00.729Z,98.00
2022-11-15T04:56:27.849Z,97.90
2022-11-15T04:58:54.760Z,98.00
2022-11-15T05:01:21.739Z,98.00
2022-11-15T05:04:07.246Z,98.50
2022-11-15T05:06:34.201Z,99.20
2022-11-15T05:09:01.219Z,99.70
2022-11-15T05:11:28.467Z,99.60
2022-11-15T05:13:55.597Z,99.50
2022-11-15T05:16:22.893Z,99.30
2022-11-15T05:18:55.880Z,99.10
2022-11-15T05:21:23.020Z,99.40
2022-11-15T05:23:49.869Z,99.20
2022-11-15T05:26:18.865Z,99.30
2022-11-15T05:28:46.170Z,99.40
2022-11-15T05:31:15.825Z,99.70
2022-11-15T05:33:44.229Z,99.70
2022-11-15T05:36:40.001Z,99.50
2022-11-15T05:39:09.297Z,99.50
2022-11-15T05:41:50.919Z,99.20
2022-11-15T05:44:21.078Z,99.30
2022-11-15T05:46:49.419Z,99.50
2022-11-15T05:49:19.525Z,99.60
2022-11-15T05:51:48.426Z,99.70
2022-11-15T05:54:17.422Z,99.70
2022-11-15T05:56:44.963Z,99.90
2022-11-15T05:59:12.540Z,99.90
2022-11-15T06:01:40.219Z,99.50
2022-11-15T06:04:07.280Z,99.30
2022-11-15T06:06:34.293Z,99.60
2022-11-15T06:09:01.545Z,99.10
2022-11-15T06:11:29.038Z,98.60
2022-11-15T06:13:57.098Z,98.60
2022-11-15T06:16:23.985Z,98.60
2022-11-15T06:18:50.960Z,98.60
2022-11-15T06:21:17.944Z,98.60
2022-11-15T06:23:44.847Z,98.30
2022-11-15T06:26:11.915Z,97.90
2022-11-15T06:28:38.984Z,97.40
2022-11-15T06:31:07.295Z,96.80
2022-11-15T06:33:34.547Z,96.70
2022-11-15T06:36:06.449Z,96.30
2022-11-15T06:38:33.923Z,95.90
2022-11-15T06:41:09.288Z,95.40
2022-11-15T06:43:36.802Z,95.20
2022-11-15T06:46:05.531Z,95.20
2022-11-15T06:48:34.046Z,95.40
2022-11-15T06:51:02.569Z,95.90
2022-11-15T06:53:30.926Z,96.60
2022-11-15T06:56:06.653Z,97.20
2022-11-15T06:58:34.027Z,97.50
2022-11-15T07:01:03.365Z,97.60
2022-11-15T07:03:30.923Z,97.50
2022-11-15T07:06:02.965Z,97.30
2022-11-15T07:08:33.815Z,96.80
2022-11-15T07:11:03.429Z,96.30
2022-11-15T07:13:35.031Z,96.20
2022-11-15T07:16:08.189Z,95.70
2022-11-15T07:18:40.422Z,95.00
2022-11-15T07:21:12.509Z,94.80
2022-11-15T07:23:40.571Z,94.30
2022-11-15T07:26:08.868Z,94.00
2022-11-15T07:28:36.533Z,93.60
2022-11-15T07:31:09.015Z,92.80
2022-11-15T07:33:36.957Z,92.20
2022-11-15T07:36:06.447Z,91.50
2022-11-15T07:38:38.147Z,90.90
2022-11-15T07:41:09.362Z,90.40
2022-11-15T07:43:36.545Z,90.30
2022-11-15T07:46:10.272Z,79.40
2022-11-15T07:48:44.358Z,71.80
2022-11-15T07:51:14.667Z,67.70
2022-11-15T07:53:42.698Z,64.90
2022-11-15T07:56:10.026Z,58.90
2022-11-15T07:58:37.193Z,47.30
2022-11-15T08:01:09.167Z,46.90
2022-11-15T08:03:37.022Z,47.60
2022-11-15T08:06:04.460Z,50.20
2022-11-15T08:08:31.655Z,47.70
2022-11-15T08:11:02.328Z,49.90
2022-11-15T08:13:30.248Z,49.90
2022-11-15T08:16:06.520Z,49.70
2022-11-15T08:18:33.831Z,47.50
2022-11-15T08:21:02.241Z,45.90
2022-11-15T08:23:29.490Z,41.30
2022-11-15T08:26:04.898Z,39.70
2022-11-15T08:28:32.966Z,40.50
2022-11-15T08:30:59.989Z,35.70
2022-11-15T08:33:27.069Z,35.80
2022-11-15T08:35:56.965Z,32.10
2022-11-15T08:38:25.887Z,29.50
2022-11-15T08:40:54.368Z,29.50
2022-11-15T08:43:21.319Z,27.40
2022-11-15T08:45:48.274Z,24.90
2022-11-15T08:48:15.275Z,17.20
2022-11-15T08:50:42.448Z,9.70
2022-11-15T08:53:09.654Z,4.50
2022-11-15T08:55:41.647Z,4.40
2022-11-15T08:58:08.535Z,5.70
2022-11-15T09:00:35.475Z,8.20
2022-11-15T09:03:06.282Z,10.30
2022-11-15T09:05:33.574Z,9.10
2022-11-15T09:08:00.853Z,11.00
2022-11-15T09:10:29.013Z,4.60
2022-11-15T09:12:58.330Z,4.00
2022-11-15T09:15:25.299Z,4.60
2022-11-15T09:17:52.304Z,7.70
2022-11-15T09:20:19.419Z,5.90
2022-11-15T09:22:46.443Z,6.80
2022-11-15T09:25:13.404Z,7.90
2022-11-15T09:27:40.402Z,7.50
2022-11-15T09:30:08.228Z,7.20
2022-11-15T09:32:39.268Z,5.50
2022-11-15T09:35:06.969Z,4.70
2022-11-15T09:37:34.103Z,5.00
2022-11-15T09:40:01.164Z,3.60
2022-11-15T09:43:20.047Z,3.60
2022-11-15T09:46:02.513Z,4.00
2022-11-15T09:49:02.754Z,3.60
2022-11-15T09:51:36.157Z,4.10
2022-11-15T09:57:46.201Z,2.70
2022-11-15T10:00:49.773Z,3.60
2022-11-15T10:03:30.260Z,1.50
2022-11-15T10:06:01.545Z,1.00
2022-11-15T10:08:57.781Z,1.00
2022-11-15T10:11:37.182Z,1.00
2022-11-15T10:14:28.181Z,1.00
2022-11-15T10:17:22.600Z,1.00
2022-11-15T10:20:14.633Z,1.00
2022-11-15T10:23:11.498Z,1.00
2022-11-15T10:25:41.476Z,1.00
2022-11-15T10:28:17.917Z,1.00
2022-11-15T10:30:51.271Z,1.00
2022-11-15T10:33:35.351Z,1.00
2022-11-15T10:36:23.382Z,1.00
2022-11-15T10:38:59.356Z,1.00
2022-11-15T10:41:44.279Z,1.00
2022-11-15T10:44:20.120Z,1.00
2022-11-15T10:47:09.019Z,1.00
2022-11-15T10:49:36.509Z,1.00
2022-11-15T10:52:32.738Z,1.00
2022-11-15T10:55:33.964Z,1.00
2022-11-15T10:58:23.884Z,1.00
2022-11-15T11:00:54.345Z,1.00
2022-11-15T11:03:40.405Z,1.00
2022-11-15T11:06:14.097Z,1.00
2022-11-15T11:08:42.087Z,1.00
2022-11-15T11:11:09.804Z,1.00
2022-11-15T11:13:39.703Z,1.00
2022-11-15T11:16:21.327Z,1.00
2022-11-15T11:19:34.671Z,1.00
2022-11-15T11:22:39.893Z,1.00
2022-11-15T11:25:31.651Z,1.00
2022-11-15T11:28:22.028Z,1.00
2022-11-15T11:31:33.142Z,1.00
2022-11-15T11:34:52.845Z,1.00
2022-11-15T11:37:59.893Z,1.00
2022-11-15T11:40:31.768Z,1.00
2022-11-15T11:43:25.009Z,1.00
2022-11-15T11:46:16.671Z,1.00
2022-11-15T11:48:46.161Z,1.00
2022-11-15T11:51:27.106Z,1.00
2022-11-15T11:54:24.977Z,1.00
2022-11-15T11:56:54.196Z,1.00
2022-11-15T11:59:44.864Z,1.00
2022-11-15T12:02:37.310Z,1.00
2022-11-15T12:05:30.736Z,1.00
2022-11-15T12:11:10.887Z,1.00
2022-11-15T12:13:39.766Z,1.00
2022-11-15T12:16:28.942Z,1.00
2022-11-15T12:19:01.686Z,1.00
2022-11-15T12:22:19.568Z,1.00
2022-11-15T12:25:21.154Z,1.00
2022-11-15T12:27:57.270Z,1.00
2022-11-15T12:30:26.969Z,1.00
2022-11-15T12:33:00.268Z,1.00
2022-11-15T12:35:42.000Z,1.00
2022-11-15T12:38:13.819Z,1.00
2022-11-15T12:41:19.775Z,1.00
2022-11-15T12:43:48.545Z,1.00
2022-11-15T12:46:25.438Z,1.00
2022-11-15T12:48:55.863Z,1.00
2022-11-15T12:51:44.504Z,1.00
2022-11-15T12:54:23.167Z,1.00
2022-11-15T12:57:32.574Z,1.00
2022-11-15T13:00:03.710Z,1.00
2022-11-15T13:02:46.619Z,1.00
2022-11-15T13:05:26.745Z,1.00
2022-11-15T13:07:58.274Z,1.00
2022-11-15T13:10:34.353Z,1.00
2022-11-15T13:13:08.488Z,1.00
2022-11-15T13:15:47.144Z,1.00
2022-11-15T13:18:36.438Z,1.00
2022-11-15T13:21:25.909Z,1.00
2022-11-15T13:23:54.898Z,1.00
2022-11-15T13:26:22.878Z,1.00
2022-11-15T13:28:53.337Z,1.00
2022-11-15T13:31:42.394Z,1.00
2022-11-15T13:34:53.115Z,1.00
2022-11-15T13:37:38.503Z,1.00
2022-11-15T13:40:38.100Z,1.00
2022-11-15T13:43:43.796Z,1.00
2022-11-15T13:46:22.520Z,1.00
2022-11-15T13:49:07.009Z,1.00
2022-11-15T13:51:44.298Z,1.00
2022-11-15T13:54:35.330Z,1.00
2022-11-15T13:57:35.100Z,1.00
2022-11-15T14:01:01.897Z,1.00
2022-11-15T14:03:38.694Z,1.00
2022-11-15T14:06:16.000Z,1.00
2022-11-15T14:09:31.509Z,1.00
2022-11-15T14:11:58.872Z,1.00
2022-11-15T14:14:28.079Z,1.00
2022-11-15T14:17:00.960Z,1.00
2022-11-15T14:19:38.957Z,1.00
2022-11-15T14:22:38.880Z,1.00
2022-11-15T14:25:21.608Z,1.00
2022-11-15T14:28:25.072Z,1.00
2022-11-15T14:30:56.904Z,1.00
2022-11-15T14:33:30.429Z,1.00
2022-11-15T14:35:58.791Z,1.00
2022-11-15T14:38:27.051Z,1.00
2022-11-15T14:40:56.021Z,1.00
2022-11-15T14:43:23.177Z,1.00
2022-11-15T14:45:50.183Z,1.00
2022-11-15T14:48:17.290Z,1.00
2022-11-15T14:50:45.134Z,1.00
2022-11-15T14:53:17.514Z,1.00
2022-11-15T14:55:44.797Z,1.00
2022-11-15T14:58:12.118Z,1.00
2022-11-15T15:00:40.990Z,1.00
2022-11-15T15:03:08.949Z,1.00
2022-11-15T15:05:41.545Z,1.00
2022-11-15T15:08:09.817Z,1.00
2022-11-15T15:10:41.889Z,1.00
2022-11-15T15:13:20.213Z,1.00
2022-11-15T15:15:48.063Z,1.00
2022-11-15T15:18:16.515Z,1.00
2022-11-15T15:20:46.751Z,1.00
2022-11-15T15:23:25.169Z,1.00
2022-11-15T15:25:53.880Z,1.00
2022-11-15T15:28:20.981Z,1.00
2022-11-15T15:30:47.901Z,1.00
2022-11-15T15:33:14.883Z,1.00
2022-11-15T15:35:42.135Z,1.00
2022-11-15T15:38:16.476Z,1.00
2022-11-15T15:40:43.489Z,1.00
2022-11-15T15:43:10.610Z,1.00
2022-11-15T15:45:42.222Z,2.10
2022-11-15T15:48:13.886Z,3.10
2022-11-15T15:50:41.012Z,3.80
2022-11-15T15:53:09.210Z,5.40
2022-11-15T15:55:36.135Z,6.10
2022-11-15T15:58:04.326Z,7.00
2022-11-15T16:00:33.827Z,8.20
2022-11-15T16:03:01.015Z,9.50
2022-11-15T16:05:28.066Z,10.00
2022-11-15T16:07:54.980Z,10.10
2022-11-15T16:10:27.994Z,9.80
2022-11-15T16:12:56.573Z,10.00
2022-11-15T16:15:25.866Z,10.80
2022-11-15T16:17:54.913Z,10.80
2022-11-15T16:20:40.833Z,10.90
2022-11-15T16:23:24.751Z,10.80
2022-11-15T16:25:56.925Z,10.80
2022-11-15T16:28:29.618Z,10.80
2022-11-15T16:31:13.699Z,10.90
2022-11-15T16:33:41.268Z,11.40
2022-11-15T16:36:28.460Z,11.20
2022-11-15T16:38:57.612Z,11.90
2022-11-15T16:41:24.774Z,11.80
2022-11-15T16:43:51.961Z,11.50
2022-11-15T16:46:27.127Z,12.30
2022-11-15T16:48:55.136Z,13.80
2022-11-15T16:51:22.861Z,15.00
2022-11-15T16:53:50.354Z,16.40
2022-11-15T16:56:29.222Z,17.60
2022-11-15T16:58:58.853Z,19.60
2022-11-15T17:01:31.868Z,18.60
2022-11-15T17:03:59.600Z,19.50
2022-11-15T17:06:27.379Z,19.80
2022-11-15T17:08:55.106Z,21.40
2022-11-15T17:11:23.320Z,22.00
2022-11-15T17:13:50.323Z,22.90
2022-11-15T17:16:18.674Z,23.90
2022-11-15T17:18:45.878Z,24.80
2022-11-15T17:21:18.543Z,25.60
2022-11-15T17:23:46.204Z,27.00
2022-11-15T17:26:29.639Z,27.80
2022-11-15T17:28:59.388Z,27.70
2022-11-15T17:31:27.172Z,28.60
2022-11-15T17:33:54.268Z,28.00
2022-11-15T17:36:21.298Z,28.70
2022-11-15T17:38:56.569Z,29.30
2022-11-15T17:41:26.231Z,29.60
2022-11-15T17:43:53.502Z,29.00
2022-11-15T17:46:21.563Z,29.10
2022-11-15T17:48:49.406Z,29.90
2022-11-15T17:51:18.879Z,29.00
2022-11-15T17:53:48.648Z,28.90
2022-11-15T17:56:18.736Z,28.00
2022-11-15T17:58:57.121Z,28.00
2022-11-15T18:01:34.476Z,28.50
2022-11-15T18:04:03.795Z,28.90
2022-11-15T18:06:33.174Z,29.20
2022-11-15T18:09:00.758Z,29.50
2022-11-15T18:11:30.449Z,29.60
2022-11-15T18:14:00.487Z,30.20
2022-11-15T18:16:32.574Z,31.20
2022-11-15T18:18:59.738Z,32.00
2022-11-15T18:21:29.256Z,33.20
2022-11-15T18:23:58.793Z,33.10
2022-11-15T18:26:28.299Z,34.10
2022-11-15T18:29:02.540Z,34.10
2022-11-15T18:31:31.854Z,33.80
2022-11-15T18:34:00.383Z,34.60
2022-11-15T18:36:29.752Z,34.70
2022-11-15T18:39:04.688Z,35.80
2022-11-15T18:41:37.469Z,37.50
2022-11-15T18:44:04.538Z,37.80
2022-11-15T18:46:32.555Z,37.90
2022-11-15T18:49:01.457Z,38.30
2022-11-15T18:51:31.051Z,37.90
2022-11-15T18:54:00.524Z,39.40
2022-11-15T18:56:29.415Z,39.40
2022-11-15T18:58:58.766Z,40.10
2022-11-15T19:01:34.226Z,41.30
2022-11-15T19:04:06.599Z,41.50
2022-11-15T19:06:38.398Z,42.30
2022-11-15T19:09:05.659Z,43.40
2022-11-15T19:11:35.894Z,43.40
2022-11-15T19:14:05.435Z,44.30
2022-11-15T19:16:37.875Z,44.80
2022-11-15T19:19:13.094Z,44.20
2022-11-15T19:21:40.651Z,44.90
2022-11-15T19:24:07.934Z,44.00
2022-11-15T19:26:37.912Z,43.20
2022-11-15T19:29:06.642Z,43.30
2022-11-15T19:31:36.471Z,43.40
2022-11-15T19:34:05.317Z,43.80
2022-11-15T19:36:34.531Z,43.30
2022-11-15T19:39:08.521Z,42.50
2022-11-15T19:41:38.433Z,41.70
2022-11-15T19:44:06.963Z,41.30
2022-11-15T19:46:34.786Z,41.20
2022-11-15T19:49:02.484Z,41.50
2022-11-15T19:51:31.303Z,41.30
2022-11-15T19:54:06.874Z,41.00
2022-11-15T19:56:35.251Z,42.00
2022-11-15T19:59:03.353Z,42.50
2022-11-15T20:01:34.078Z,41.40
2022-11-15T20:04:01.551Z,41.60
2022-11-15T20:06:34.385Z,41.60
2022-11-15T20:09:01.686Z,41.80
2022-11-15T20:11:28.717Z,41.70
2022-11-15T20:14:02.132Z,40.90
2022-11-15T20:16:30.183Z,40.80
2022-11-15T20:18:57.430Z,40.50
2022-11-15T20:21:24.576Z,39.90
2022-11-15T20:23:51.890Z,40.30
2022-11-15T20:26:22.165Z,39.80
2022-11-15T20:28:49.472Z,40.70
2022-11-15T20:31:17.687Z,40.70
2022-11-15T20:33:44.999Z,40.80
2022-11-15T20:36:14.085Z,40.10
2022-11-15T20:38:44.077Z,40.80
2022-11-15T20:41:12.069Z,40.30
2022-11-15T20:43:39.341Z,40.60
2022-11-15T20:46:06.376Z,40.10
2022-11-15T20:48:33.566Z,40.50
2022-11-15T20:51:19.515Z,40.80
2022-11-15T20:53:47.826Z,41.70
2022-11-15T20:56:18.003Z,42.40
2022-11-15T20:58:50.421Z,42.70
2022-11-15T21:01:23.759Z,42.60
2022-11-15T21:03:53.005Z,42.40
2022-11-15T21:06:21.196Z,43.60
2022-11-15T21:09:11.331Z,43.40
2022-11-15T21:11:57.457Z,43.00
2022-11-15T21:14:24.708Z,44.00
2022-11-15T21:16:51.856Z,44.40
2022-11-15T21:19:22.660Z,44.30
2022-11-15T21:21:52.836Z,45.00
2022-11-15T21:24:24.773Z,46.40
2022-11-15T21:26:52.634Z,46.80
2022-11-15T21:29:19.706Z,47.70
2022-11-15T21:31:48.834Z,48.90
2022-11-15T21:34:16.226Z,48.90
2022-11-15T21:36:44.932Z,49.20
2022-11-15T21:39:12.157Z,48.80
2022-11-15T21:41:39.265Z,49.70
2022-11-15T21:44:07.033Z,49.90
2022-11-15T21:46:34.340Z,48.90
2022-11-15T21:49:04.608Z,48.90
2022-11-15T21:51:32.355Z,50.40
2022-11-15T21:54:00.266Z,52.90
2022-11-15T21:56:28.662Z,54.50
2022-11-15T21:58:56.920Z,58.20
2022-11-15T22:01:44.391Z,58.70
2022-11-15T22:04:11.782Z,63.00
2022-11-15T22:06:39.109Z,65.20
2022-11-15T22:09:07.154Z,67.70
2022-11-15T22:11:34.628Z,69.30
2022-11-15T22:14:02.060Z,71.00
2022-11-15T22:16:31.480Z,73.60
2022-11-15T22:18:58.751Z,77.00
2022-11-15T22:21:25.921Z,80.70
2022-11-15T22:23:53.322Z,82.30
2022-11-15T22:26:23.710Z,84.10
2022-11-15T22:28:51.836Z,85.00
2022-11-15T22:31:19.313Z,85.90
2022-11-15T22:33:47.254Z,86.30
2022-11-15T22:36:14.647Z,89.60
2022-11-15T22:38:44.063Z,86.40
2022-11-15T22:41:11.258Z,87.80
2022-11-15T22:43:38.555Z,90.50
2022-11-15T22:46:06.186Z,90.80
2022-11-15T22:48:39.019Z,93.40
2022-11-15T22:51:08.515Z,94.40
2022-11-15T22:53:35.788Z,95.00
2022-11-15T22:56:05.527Z,96.00
2022-11-15T22:58:36.280Z,97.60
2022-11-15T23:01:05.323Z,99.20
2022-11-15T23:03:33.582Z,99.90
2022-11-15T23:06:08.030Z,99.90
2022-11-15T23:08:35.462Z,99.90
2022-11-15T23:11:23.326Z,99.90
2022-11-15T23:13:53.758Z,99.90
2022-11-15T23:16:34.672Z,99.90
2022-11-15T23:19:09.043Z,99.90
2022-11-15T23:22:05.490Z,99.90
2022-11-15T23:24:33.825Z,99.90
2022-11-15T23:27:04.005Z,99.90
2022-11-15T23:29:31.637Z,99.90
2022-11-15T23:32:17.354Z,99.90
2022-11-15T23:34:45.946Z,99.90
2022-11-15T23:37:14.821Z,99.90
2022-11-15T23:39:41.943Z,99.90
2022-11-15T23:42:09.667Z,99.90
2022-11-15T23:44:37.260Z,99.90
2022-11-15T23:47:04.684Z,99.90
2022-11-15T23:49:31.787Z,99.90
2022-11-15T23:51:58.948Z,99.90
2022-11-15T23:54:26.003Z,99.90
2022-11-15T23:56:53.187Z,99.90
2022-11-15T23:59:20.359Z,99.90
